sensor_id;sensor_type;location;lat;lon;timestamp;temperature;humidity
758;DHT22;363;48.764;9.172;2023-06-14T00:00:39;16.60;61.40
758;DHT22;363;48.764;9.172;2023-06-14T00:03:06;16.40;61.70
758;DHT22;363;48.764;9.172;2023-06-14T00:05:35;16.30;62.00
758;DHT22;363;48.764;9.172;2023-06-14T00:08:06;16.40;63.20
758;DHT22;363;48.764;9.172;2023-06-14T00:10:34;16.40;62.60
758;DHT22;363;48.764;9.172;2023-06-14T00:13:01;16.20;63.10
758;DHT22;363;48.764;9.172;2023-06-14T00:15:27;16.20;63.10
758;DHT22;363;48.764;9.172;2023-06-14T00:17:53;16.20;64.10
758;DHT22;363;48.764;9.172;2023-06-14T00:20:20;16.10;64.50
758;DHT22;363;48.764;9.172;2023-06-14T00:22:46;16.00;64.20
758;DHT22;363;48.764;9.172;2023-06-14T00:25:13;16.20;64.60
758;DHT22;363;48.764;9.172;2023-06-14T00:27:39;16.00;64.70
758;DHT22;363;48.764;9.172;2023-06-14T00:30:05;15.60;64.40
758;DHT22;363;48.764;9.172;2023-06-14T00:32:31;15.90;64.80
758;DHT22;363;48.764;9.172;2023-06-14T00:34:56;15.80;65.30
758;DHT22;363;48.764;9.172;2023-06-14T00:37:22;15.60;65.40
758;DHT22;363;48.764;9.172;2023-06-14T00:42:24;15.90;66.40
758;DHT22;363;48.764;9.172;2023-06-14T00:44:50;15.80;66.90
758;DHT22;363;48.764;9.172;2023-06-14T00:47:16;15.50;66.90
758;DHT22;363;48.764;9.172;2023-06-14T00:49:41;15.60;67.80
758;DHT22;363;48.764;9.172;2023-06-14T00:52:07;15.60;68.10
758;DHT22;363;48.764;9.172;2023-06-14T00:54:37;15.60;68.30
758;DHT22;363;48.764;9.172;2023-06-14T00:57:03;15.30;68.60
758;DHT22;363;48.764;9.172;2023-06-14T00:59:29;15.20;69.10
758;DHT22;363;48.764;9.172;2023-06-14T01:01:55;15.20;69.60
758;DHT22;363;48.764;9.172;2023-06-14T01:04:21;15.30;70.10
758;DHT22;363;48.764;9.172;2023-06-14T01:06:50;15.30;70.40
758;DHT22;363;48.764;9.172;2023-06-14T01:12:11;15.20;71.00
758;DHT22;363;48.764;9.172;2023-06-14T01:14:39;15.10;71.10
758;DHT22;363;48.764;9.172;2023-06-14T01:17:08;15.10;73.40
758;DHT22;363;48.764;9.172;2023-06-14T01:19:42;15.10;73.10
758;DHT22;363;48.764;9.172;2023-06-14T01:22:08;15.10;72.40
758;DHT22;363;48.764;9.172;2023-06-14T01:24:34;15.00;72.60
758;DHT22;363;48.764;9.172;2023-06-14T01:27:00;14.90;72.80
758;DHT22;363;48.764;9.172;2023-06-14T01:29:27;14.90;72.60
758;DHT22;363;48.764;9.172;2023-06-14T01:32:01;14.90;72.70
758;DHT22;363;48.764;9.172;2023-06-14T01:34:27;14.90;73.20
758;DHT22;363;48.764;9.172;2023-06-14T01:36:53;14.90;73.90
758;DHT22;363;48.764;9.172;2023-06-14T01:39:23;14.90;74.30
758;DHT22;363;48.764;9.172;2023-06-14T01:41:50;14.90;74.70
758;DHT22;363;48.764;9.172;2023-06-14T01:44:17;14.80;74.90
758;DHT22;363;48.764;9.172;2023-06-14T01:46:44;14.60;75.00
758;DHT22;363;48.764;9.172;2023-06-14T01:49:11;14.70;75.50
758;DHT22;363;48.764;9.172;2023-06-14T01:51:36;14.90;75.70
758;DHT22;363;48.764;9.172;2023-06-14T01:54:02;14.80;75.70
758;DHT22;363;48.764;9.172;2023-06-14T01:56:27;14.70;75.70
758;DHT22;363;48.764;9.172;2023-06-14T01:58:53;14.90;76.10
758;DHT22;363;48.764;9.172;2023-06-14T02:01:19;14.40;75.80
758;DHT22;363;48.764;9.172;2023-06-14T02:03:47;14.60;76.60
758;DHT22;363;48.764;9.172;2023-06-14T02:06:13;14.50;76.80
758;DHT22;363;48.764;9.172;2023-06-14T02:08:39;14.60;77.50
758;DHT22;363;48.764;9.172;2023-06-14T02:11:05;14.40;77.70
758;DHT22;363;48.764;9.172;2023-06-14T02:13:31;14.50;78.10
758;DHT22;363;48.764;9.172;2023-06-14T02:15:56;14.30;78.60
758;DHT22;363;48.764;9.172;2023-06-14T02:18:23;14.50;80.40
758;DHT22;363;48.764;9.172;2023-06-14T02:20:48;14.50;80.90
758;DHT22;363;48.764;9.172;2023-06-14T02:23:14;14.30;80.20
758;DHT22;363;48.764;9.172;2023-06-14T02:25:40;14.30;80.80
758;DHT22;363;48.764;9.172;2023-06-14T02:28:06;14.50;80.60
758;DHT22;363;48.764;9.172;2023-06-14T02:30:31;14.30;80.30
758;DHT22;363;48.764;9.172;2023-06-14T02:32:57;14.40;81.00
758;DHT22;363;48.764;9.172;2023-06-14T02:35:24;14.10;81.00
758;DHT22;363;48.764;9.172;2023-06-14T02:37:52;13.90;81.60
758;DHT22;363;48.764;9.172;2023-06-14T02:40:18;13.80;81.90
758;DHT22;363;48.764;9.172;2023-06-14T02:42:44;14.20;82.70
758;DHT22;363;48.764;9.172;2023-06-14T02:45:09;14.10;82.90
758;DHT22;363;48.764;9.172;2023-06-14T02:47:35;13.90;83.00
758;DHT22;363;48.764;9.172;2023-06-14T02:50:01;14.10;83.50
758;DHT22;363;48.764;9.172;2023-06-14T02:52:28;14.00;84.20
758;DHT22;363;48.764;9.172;2023-06-14T02:54:53;13.80;84.10
758;DHT22;363;48.764;9.172;2023-06-14T02:57:20;13.60;84.50
758;DHT22;363;48.764;9.172;2023-06-14T02:59:45;13.80;85.20
758;DHT22;363;48.764;9.172;2023-06-14T03:02:11;13.70;85.30
758;DHT22;363;48.764;9.172;2023-06-14T03:04:37;13.80;86.10
758;DHT22;363;48.764;9.172;2023-06-14T03:07:03;13.60;85.80
758;DHT22;363;48.764;9.172;2023-06-14T03:09:35;13.70;86.10
758;DHT22;363;48.764;9.172;2023-06-14T03:12:02;13.60;86.40
758;DHT22;363;48.764;9.172;2023-06-14T03:14:28;13.70;86.80
758;DHT22;363;48.764;9.172;2023-06-14T03:16:56;13.60;88.10
758;DHT22;363;48.764;9.172;2023-06-14T03:19:23;13.60;88.80
758;DHT22;363;48.764;9.172;2023-06-14T03:21:48;13.50;87.90
758;DHT22;363;48.764;9.172;2023-06-14T03:24:15;13.60;88.10
758;DHT22;363;48.764;9.172;2023-06-14T03:26:44;13.60;87.90
758;DHT22;363;48.764;9.172;2023-06-14T03:29:09;13.70;88.10
758;DHT22;363;48.764;9.172;2023-06-14T03:31:35;13.60;88.20
758;DHT22;363;48.764;9.172;2023-06-14T03:34:01;13.50;88.60
758;DHT22;363;48.764;9.172;2023-06-14T03:36:27;13.70;89.00
758;DHT22;363;48.764;9.172;2023-06-14T03:38:56;13.40;89.40
758;DHT22;363;48.764;9.172;2023-06-14T03:41:21;13.50;89.30
758;DHT22;363;48.764;9.172;2023-06-14T03:43:47;13.50;89.20
758;DHT22;363;48.764;9.172;2023-06-14T03:46:12;13.70;89.70
758;DHT22;363;48.764;9.172;2023-06-14T03:48:38;13.50;89.50
758;DHT22;363;48.764;9.172;2023-06-14T03:51:04;13.50;89.90
758;DHT22;363;48.764;9.172;2023-06-14T03:53:30;13.40;90.00
758;DHT22;363;48.764;9.172;2023-06-14T03:55:56;13.60;90.00
758;DHT22;363;48.764;9.172;2023-06-14T03:58:23;13.60;90.30
758;DHT22;363;48.764;9.172;2023-06-14T04:00:48;13.30;90.00
758;DHT22;363;48.764;9.172;2023-06-14T04:03:14;13.40;90.60
758;DHT22;363;48.764;9.172;2023-06-14T04:05:41;13.80;90.80
758;DHT22;363;48.764;9.172;2023-06-14T04:08:14;13.50;90.80
758;DHT22;363;48.764;9.172;2023-06-14T04:10:41;13.50;91.00
758;DHT22;363;48.764;9.172;2023-06-14T04:13:06;13.30;91.00
758;DHT22;363;48.764;9.172;2023-06-14T04:15:32;13.70;91.10
758;DHT22;363;48.764;9.172;2023-06-14T04:17:58;13.70;92.00
758;DHT22;363;48.764;9.172;2023-06-14T04:20:24;13.80;91.90
758;DHT22;363;48.764;9.172;2023-06-14T04:22:51;13.70;91.10
758;DHT22;363;48.764;9.172;2023-06-14T04:25:18;13.70;90.70
758;DHT22;363;48.764;9.172;2023-06-14T04:27:43;13.80;90.60
758;DHT22;363;48.764;9.172;2023-06-14T04:30:09;13.90;90.10
758;DHT22;363;48.764;9.172;2023-06-14T04:32:35;14.00;90.40
758;DHT22;363;48.764;9.172;2023-06-14T04:35:07;14.00;90.30
758;DHT22;363;48.764;9.172;2023-06-14T04:37:33;14.10;90.30
758;DHT22;363;48.764;9.172;2023-06-14T04:39:59;14.20;90.50
758;DHT22;363;48.764;9.172;2023-06-14T04:42:25;14.00;90.50
758;DHT22;363;48.764;9.172;2023-06-14T04:44:55;14.00;90.50
758;DHT22;363;48.764;9.172;2023-06-14T04:47:21;14.20;90.70
758;DHT22;363;48.764;9.172;2023-06-14T04:49:47;14.20;90.40
758;DHT22;363;48.764;9.172;2023-06-14T04:52:13;14.20;90.40
758;DHT22;363;48.764;9.172;2023-06-14T04:54:40;14.30;90.10
758;DHT22;363;48.764;9.172;2023-06-14T04:57:09;14.80;90.00
758;DHT22;363;48.764;9.172;2023-06-14T04:59:40;14.70;89.30
758;DHT22;363;48.764;9.172;2023-06-14T05:02:05;14.80;88.50
758;DHT22;363;48.764;9.172;2023-06-14T05:04:32;15.00;88.60
758;DHT22;363;48.764;9.172;2023-06-14T05:06:59;15.00;88.70
758;DHT22;363;48.764;9.172;2023-06-14T05:09:24;15.00;87.40
758;DHT22;363;48.764;9.172;2023-06-14T05:11:50;15.10;88.20
758;DHT22;363;48.764;9.172;2023-06-14T05:14:16;15.20;88.10
758;DHT22;363;48.764;9.172;2023-06-14T05:16:42;15.40;88.50
758;DHT22;363;48.764;9.172;2023-06-14T05:19:08;15.20;89.50
758;DHT22;363;48.764;9.172;2023-06-14T05:21:34;15.60;86.70
758;DHT22;363;48.764;9.172;2023-06-14T05:24:00;15.50;86.10
758;DHT22;363;48.764;9.172;2023-06-14T05:26:26;16.00;85.90
758;DHT22;363;48.764;9.172;2023-06-14T05:28:58;16.10;83.90
758;DHT22;363;48.764;9.172;2023-06-14T05:31:26;16.10;82.60
758;DHT22;363;48.764;9.172;2023-06-14T05:33:52;16.50;83.50
758;DHT22;363;48.764;9.172;2023-06-14T05:36:19;16.60;83.30
758;DHT22;363;48.764;9.172;2023-06-14T05:38:45;16.80;80.80
758;DHT22;363;48.764;9.172;2023-06-14T05:41:11;17.10;76.80
758;DHT22;363;48.764;9.172;2023-06-14T05:43:37;17.10;76.70
758;DHT22;363;48.764;9.172;2023-06-14T05:46:02;17.30;78.00
758;DHT22;363;48.764;9.172;2023-06-14T05:48:28;17.40;77.90
758;DHT22;363;48.764;9.172;2023-06-14T05:50:54;17.60;75.70
758;DHT22;363;48.764;9.172;2023-06-14T05:53:20;17.70;74.30
758;DHT22;363;48.764;9.172;2023-06-14T05:55:45;17.80;71.30
758;DHT22;363;48.764;9.172;2023-06-14T05:58:11;17.90;72.00
758;DHT22;363;48.764;9.172;2023-06-14T06:00:39;18.00;70.80
758;DHT22;363;48.764;9.172;2023-06-14T06:03:04;18.20;69.60
758;DHT22;363;48.764;9.172;2023-06-14T06:05:33;18.30;69.60
758;DHT22;363;48.764;9.172;2023-06-14T06:07:59;18.40;68.30
758;DHT22;363;48.764;9.172;2023-06-14T06:10:25;18.60;67.40
758;DHT22;363;48.764;9.172;2023-06-14T06:12:51;18.60;65.70
758;DHT22;363;48.764;9.172;2023-06-14T06:15:17;18.60;66.40
758;DHT22;363;48.764;9.172;2023-06-14T06:17:44;18.70;66.80
758;DHT22;363;48.764;9.172;2023-06-14T06:20:10;18.80;64.40
758;DHT22;363;48.764;9.172;2023-06-14T06:22:37;18.40;64.70
758;DHT22;363;48.764;9.172;2023-06-14T06:25:03;18.90;64.50
758;DHT22;363;48.764;9.172;2023-06-14T06:27:29;18.80;64.80
758;DHT22;363;48.764;9.172;2023-06-14T06:29:54;18.80;64.30
758;DHT22;363;48.764;9.172;2023-06-14T06:32:21;19.40;63.60
758;DHT22;363;48.764;9.172;2023-06-14T06:34:46;19.40;62.50
758;DHT22;363;48.764;9.172;2023-06-14T06:37:12;19.50;62.70
758;DHT22;363;48.764;9.172;2023-06-14T06:39:38;19.60;62.20
758;DHT22;363;48.764;9.172;2023-06-14T06:42:04;20.00;60.40
758;DHT22;363;48.764;9.172;2023-06-14T06:44:30;19.70;61.00
758;DHT22;363;48.764;9.172;2023-06-14T06:46:57;19.80;61.50
758;DHT22;363;48.764;9.172;2023-06-14T06:49:22;19.80;62.60
758;DHT22;363;48.764;9.172;2023-06-14T06:52:05;19.60;62.60
758;DHT22;363;48.764;9.172;2023-06-14T06:54:31;20.10;61.00
758;DHT22;363;48.764;9.172;2023-06-14T06:56:57;20.30;60.50
758;DHT22;363;48.764;9.172;2023-06-14T06:59:23;20.50;61.00
758;DHT22;363;48.764;9.172;2023-06-14T07:01:49;20.80;60.40
758;DHT22;363;48.764;9.172;2023-06-14T07:04:15;21.30;59.30
758;DHT22;363;48.764;9.172;2023-06-14T07:06:42;23.00;56.20
758;DHT22;363;48.764;9.172;2023-06-14T07:09:08;24.40;52.00
758;DHT22;363;48.764;9.172;2023-06-14T07:11:38;26.30;49.60
758;DHT22;363;48.764;9.172;2023-06-14T07:14:04;27.90;45.80
758;DHT22;363;48.764;9.172;2023-06-14T07:16:30;30.10;42.20
758;DHT22;363;48.764;9.172;2023-06-14T07:18:55;31.80;38.30
758;DHT22;363;48.764;9.172;2023-06-14T07:21:21;32.50;37.50
758;DHT22;363;48.764;9.172;2023-06-14T07:23:47;32.90;35.00
758;DHT22;363;48.764;9.172;2023-06-14T07:26:12;33.00;35.00
758;DHT22;363;48.764;9.172;2023-06-14T07:28:38;33.90;33.00
758;DHT22;363;48.764;9.172;2023-06-14T07:31:04;34.20;32.50
758;DHT22;363;48.764;9.172;2023-06-14T07:33:29;34.60;31.50
758;DHT22;363;48.764;9.172;2023-06-14T07:35:55;34.20;30.40
758;DHT22;363;48.764;9.172;2023-06-14T07:38:21;33.70;30.00
758;DHT22;363;48.764;9.172;2023-06-14T07:40:47;34.80;31.60
758;DHT22;363;48.764;9.172;2023-06-14T07:43:12;35.10;30.20
758;DHT22;363;48.764;9.172;2023-06-14T07:45:38;35.60;30.00
758;DHT22;363;48.764;9.172;2023-06-14T07:48:04;35.50;29.50
758;DHT22;363;48.764;9.172;2023-06-14T07:50:29;36.70;28.30
758;DHT22;363;48.764;9.172;2023-06-14T07:52:55;37.20;28.10
758;DHT22;363;48.764;9.172;2023-06-14T07:55:21;37.90;27.90
758;DHT22;363;48.764;9.172;2023-06-14T07:57:47;37.00;27.10
758;DHT22;363;48.764;9.172;2023-06-14T08:00:12;36.70;27.50
758;DHT22;363;48.764;9.172;2023-06-14T08:02:44;35.50;27.90
758;DHT22;363;48.764;9.172;2023-06-14T08:05:10;34.80;29.20
758;DHT22;363;48.764;9.172;2023-06-14T08:07:37;36.50;28.30
758;DHT22;363;48.764;9.172;2023-06-14T08:10:04;37.40;27.10
758;DHT22;363;48.764;9.172;2023-06-14T08:12:30;35.90;27.90
758;DHT22;363;48.764;9.172;2023-06-14T08:14:55;34.40;28.80
758;DHT22;363;48.764;9.172;2023-06-14T08:17:21;34.70;29.50
758;DHT22;363;48.764;9.172;2023-06-14T08:19:46;35.70;29.30
758;DHT22;363;48.764;9.172;2023-06-14T08:22:12;36.70;28.00
758;DHT22;363;48.764;9.172;2023-06-14T08:24:38;37.00;27.50
758;DHT22;363;48.764;9.172;2023-06-14T08:27:05;36.70;28.10
758;DHT22;363;48.764;9.172;2023-06-14T08:29:31;35.90;28.20
758;DHT22;363;48.764;9.172;2023-06-14T08:31:57;35.50;29.10
758;DHT22;363;48.764;9.172;2023-06-14T08:34:22;34.80;28.50
758;DHT22;363;48.764;9.172;2023-06-14T08:36:51;35.90;29.60
758;DHT22;363;48.764;9.172;2023-06-14T08:39:17;35.90;28.90
758;DHT22;363;48.764;9.172;2023-06-14T08:41:46;35.40;28.50
758;DHT22;363;48.764;9.172;2023-06-14T08:44:15;35.70;29.60
758;DHT22;363;48.764;9.172;2023-06-14T08:46:41;37.60;28.60
758;DHT22;363;48.764;9.172;2023-06-14T08:49:08;38.30;27.70
758;DHT22;363;48.764;9.172;2023-06-14T08:51:38;38.10;26.80
758;DHT22;363;48.764;9.172;2023-06-14T08:54:05;37.90;27.40
758;DHT22;363;48.764;9.172;2023-06-14T08:56:32;38.90;27.20
758;DHT22;363;48.764;9.172;2023-06-14T08:58:59;36.90;27.30
758;DHT22;363;48.764;9.172;2023-06-14T09:01:34;36.70;27.90
758;DHT22;363;48.764;9.172;2023-06-14T09:04:00;37.70;27.70
758;DHT22;363;48.764;9.172;2023-06-14T09:06:25;38.70;27.00
758;DHT22;363;48.764;9.172;2023-06-14T09:08:54;38.90;26.80
758;DHT22;363;48.764;9.172;2023-06-14T09:11:21;37.90;26.70
758;DHT22;363;48.764;9.172;2023-06-14T09:13:49;37.80;27.10
758;DHT22;363;48.764;9.172;2023-06-14T09:16:15;38.20;26.50
758;DHT22;363;48.764;9.172;2023-06-14T09:18:45;38.10;26.70
758;DHT22;363;48.764;9.172;2023-06-14T09:21:14;38.20;26.90
758;DHT22;363;48.764;9.172;2023-06-14T09:23:45;38.30;27.00
758;DHT22;363;48.764;9.172;2023-06-14T09:26:18;38.30;26.80
758;DHT22;363;48.764;9.172;2023-06-14T09:28:49;38.40;26.90
758;DHT22;363;48.764;9.172;2023-06-14T09:31:20;37.60;26.20
758;DHT22;363;48.764;9.172;2023-06-14T09:33:47;38.20;27.30
758;DHT22;363;48.764;9.172;2023-06-14T09:36:24;38.10;26.70
758;DHT22;363;48.764;9.172;2023-06-14T09:39:02;38.20;26.40
758;DHT22;363;48.764;9.172;2023-06-14T09:43:59;38.70;26.00
758;DHT22;363;48.764;9.172;2023-06-14T09:46:29;37.30;26.30
758;DHT22;363;48.764;9.172;2023-06-14T09:48:58;37.20;27.10
758;DHT22;363;48.764;9.172;2023-06-14T09:51:25;36.90;26.70
758;DHT22;363;48.764;9.172;2023-06-14T09:53:52;37.10;26.70
758;DHT22;363;48.764;9.172;2023-06-14T09:56:47;36.30;27.00
758;DHT22;363;48.764;9.172;2023-06-14T09:59:17;34.40;29.20
758;DHT22;363;48.764;9.172;2023-06-14T10:01:45;34.50;28.70
758;DHT22;363;48.764;9.172;2023-06-14T10:04:13;35.80;28.50
758;DHT22;363;48.764;9.172;2023-06-14T10:06:43;35.70;27.80
758;DHT22;363;48.764;9.172;2023-06-14T10:09:12;36.00;27.60
758;DHT22;363;48.764;9.172;2023-06-14T10:11:38;36.00;27.10
758;DHT22;363;48.764;9.172;2023-06-14T10:14:11;36.30;26.40
758;DHT22;363;48.764;9.172;2023-06-14T10:16:45;36.00;27.20
758;DHT22;363;48.764;9.172;2023-06-14T10:19:18;34.20;28.60
758;DHT22;363;48.764;9.172;2023-06-14T10:22:21;32.30;29.80
758;DHT22;363;48.764;9.172;2023-06-14T10:24:50;30.30;32.10
758;DHT22;363;48.764;9.172;2023-06-14T10:27:16;30.70;32.40
758;DHT22;363;48.764;9.172;2023-06-14T10:32:26;30.50;32.40
758;DHT22;363;48.764;9.172;2023-06-14T10:34:56;30.50;33.20
758;DHT22;363;48.764;9.172;2023-06-14T10:37:22;30.30;32.90
758;DHT22;363;48.764;9.172;2023-06-14T10:39:47;30.70;32.50
758;DHT22;363;48.764;9.172;2023-06-14T10:42:13;30.80;33.00
758;DHT22;363;48.764;9.172;2023-06-14T10:44:43;29.60;33.60
758;DHT22;363;48.764;9.172;2023-06-14T10:47:25;28.70;35.50
758;DHT22;363;48.764;9.172;2023-06-14T10:49:53;28.30;36.00
758;DHT22;363;48.764;9.172;2023-06-14T10:52:24;27.80;36.80
758;DHT22;363;48.764;9.172;2023-06-14T10:57:25;28.20;36.60
758;DHT22;363;48.764;9.172;2023-06-14T10:59:51;29.70;34.70
758;DHT22;363;48.764;9.172;2023-06-14T11:10:45;32.80;29.50
758;DHT22;363;48.764;9.172;2023-06-14T11:13:11;33.70;29.60
758;DHT22;363;48.764;9.172;2023-06-14T11:15:38;34.30;28.40
758;DHT22;363;48.764;9.172;2023-06-14T11:18:07;34.30;27.80
758;DHT22;363;48.764;9.172;2023-06-14T11:20:39;34.50;28.00
758;DHT22;363;48.764;9.172;2023-06-14T11:23:04;34.50;27.70
758;DHT22;363;48.764;9.172;2023-06-14T11:25:30;33.80;28.30
758;DHT22;363;48.764;9.172;2023-06-14T11:27:56;33.80;27.60
758;DHT22;363;48.764;9.172;2023-06-14T11:30:23;33.80;27.80
758;DHT22;363;48.764;9.172;2023-06-14T11:32:50;34.40;28.40
758;DHT22;363;48.764;9.172;2023-06-14T11:35:17;34.40;27.50
758;DHT22;363;48.764;9.172;2023-06-14T11:37:43;35.30;27.40
758;DHT22;363;48.764;9.172;2023-06-14T11:40:13;34.20;27.30
758;DHT22;363;48.764;9.172;2023-06-14T11:42:40;32.50;28.80
758;DHT22;363;48.764;9.172;2023-06-14T11:45:10;31.40;29.50
758;DHT22;363;48.764;9.172;2023-06-14T11:47:37;30.30;30.60
758;DHT22;363;48.764;9.172;2023-06-14T11:50:04;29.30;30.90
758;DHT22;363;48.764;9.172;2023-06-14T11:52:31;28.80;31.60
758;DHT22;363;48.764;9.172;2023-06-14T11:54:57;28.10;33.10
758;DHT22;363;48.764;9.172;2023-06-14T11:57:24;27.80;33.30
758;DHT22;363;48.764;9.172;2023-06-14T11:59:50;27.10;34.30
758;DHT22;363;48.764;9.172;2023-06-14T12:02:17;27.10;34.40
758;DHT22;363;48.764;9.172;2023-06-14T12:04:51;26.90;34.80
758;DHT22;363;48.764;9.172;2023-06-14T12:07:18;26.90;35.50
758;DHT22;363;48.764;9.172;2023-06-14T12:12:24;26.30;36.20
758;DHT22;363;48.764;9.172;2023-06-14T12:14:54;26.20;36.20
758;DHT22;363;48.764;9.172;2023-06-14T12:17:20;26.20;36.30
758;DHT22;363;48.764;9.172;2023-06-14T12:19:46;26.50;36.60
758;DHT22;363;48.764;9.172;2023-06-14T12:22:13;26.70;36.20
758;DHT22;363;48.764;9.172;2023-06-14T12:24:42;26.90;36.00
758;DHT22;363;48.764;9.172;2023-06-14T12:27:08;26.80;35.90
758;DHT22;363;48.764;9.172;2023-06-14T12:29:33;27.00;36.60
758;DHT22;363;48.764;9.172;2023-06-14T12:31:59;27.50;35.30
758;DHT22;363;48.764;9.172;2023-06-14T12:34:26;27.40;35.10
758;DHT22;363;48.764;9.172;2023-06-14T12:36:53;27.20;35.20
758;DHT22;363;48.764;9.172;2023-06-14T12:39:19;27.30;36.00
758;DHT22;363;48.764;9.172;2023-06-14T12:41:46;27.10;35.30
758;DHT22;363;48.764;9.172;2023-06-14T12:44:12;27.00;35.60
758;DHT22;363;48.764;9.172;2023-06-14T12:46:39;27.50;36.00
758;DHT22;363;48.764;9.172;2023-06-14T12:49:05;26.60;36.00
758;DHT22;363;48.764;9.172;2023-06-14T12:51:32;26.30;37.20
758;DHT22;363;48.764;9.172;2023-06-14T12:53:57;26.40;37.40
758;DHT22;363;48.764;9.172;2023-06-14T12:56:23;26.40;37.20
758;DHT22;363;48.764;9.172;2023-06-14T12:58:49;26.50;37.80
758;DHT22;363;48.764;9.172;2023-06-14T13:01:14;26.50;37.30
758;DHT22;363;48.764;9.172;2023-06-14T13:03:40;26.40;37.40
758;DHT22;363;48.764;9.172;2023-06-14T13:06:05;26.40;37.50
758;DHT22;363;48.764;9.172;2023-06-14T13:08:31;26.40;37.50
758;DHT22;363;48.764;9.172;2023-06-14T13:10:57;26.40;37.60
758;DHT22;363;48.764;9.172;2023-06-14T13:13:23;26.30;38.10
758;DHT22;363;48.764;9.172;2023-06-14T13:15:49;26.40;37.60
758;DHT22;363;48.764;9.172;2023-06-14T13:18:15;26.20;37.60
758;DHT22;363;48.764;9.172;2023-06-14T13:20:41;26.00;38.00
758;DHT22;363;48.764;9.172;2023-06-14T13:23:07;26.00;37.60
758;DHT22;363;48.764;9.172;2023-06-14T13:25:37;25.80;37.30
758;DHT22;363;48.764;9.172;2023-06-14T13:28:06;25.80;37.90
758;DHT22;363;48.764;9.172;2023-06-14T13:30:32;25.90;37.80
758;DHT22;363;48.764;9.172;2023-06-14T13:32:58;26.10;37.60
758;DHT22;363;48.764;9.172;2023-06-14T13:35:24;26.10;37.20
758;DHT22;363;48.764;9.172;2023-06-14T13:37:50;26.20;36.90
758;DHT22;363;48.764;9.172;2023-06-14T13:40:16;26.20;37.70
758;DHT22;363;48.764;9.172;2023-06-14T13:42:41;26.10;38.20
758;DHT22;363;48.764;9.172;2023-06-14T13:45:10;26.10;38.70
758;DHT22;363;48.764;9.172;2023-06-14T13:47:36;26.10;38.90
758;DHT22;363;48.764;9.172;2023-06-14T13:50:02;26.20;39.10
758;DHT22;363;48.764;9.172;2023-06-14T13:52:28;26.30;38.70
758;DHT22;363;48.764;9.172;2023-06-14T13:54:54;26.30;38.40
758;DHT22;363;48.764;9.172;2023-06-14T13:57:20;26.10;38.30
758;DHT22;363;48.764;9.172;2023-06-14T13:59:45;26.10;38.70
758;DHT22;363;48.764;9.172;2023-06-14T14:02:11;26.00;38.30
758;DHT22;363;48.764;9.172;2023-06-14T14:04:37;25.90;38.70
758;DHT22;363;48.764;9.172;2023-06-14T14:07:04;25.80;38.90
758;DHT22;363;48.764;9.172;2023-06-14T14:09:30;25.90;38.50
758;DHT22;363;48.764;9.172;2023-06-14T14:11:56;25.90;38.70
758;DHT22;363;48.764;9.172;2023-06-14T14:14:22;25.80;39.10
758;DHT22;363;48.764;9.172;2023-06-14T14:16:49;25.80;38.20
758;DHT22;363;48.764;9.172;2023-06-14T14:19:17;25.90;38.80
758;DHT22;363;48.764;9.172;2023-06-14T14:21:44;26.00;38.30
758;DHT22;363;48.764;9.172;2023-06-14T14:24:10;25.90;38.30
758;DHT22;363;48.764;9.172;2023-06-14T14:26:35;26.00;38.50
758;DHT22;363;48.764;9.172;2023-06-14T14:29:01;26.00;38.60
758;DHT22;363;48.764;9.172;2023-06-14T14:31:28;25.80;38.90
758;DHT22;363;48.764;9.172;2023-06-14T14:33:53;25.80;38.90
758;DHT22;363;48.764;9.172;2023-06-14T14:36:19;25.90;38.90
758;DHT22;363;48.764;9.172;2023-06-14T14:38:45;25.30;39.00
758;DHT22;363;48.764;9.172;2023-06-14T14:41:10;26.00;39.70
758;DHT22;363;48.764;9.172;2023-06-14T14:43:36;26.10;39.90
758;DHT22;363;48.764;9.172;2023-06-14T14:46:02;26.00;39.80
758;DHT22;363;48.764;9.172;2023-06-14T14:48:27;25.80;39.90
758;DHT22;363;48.764;9.172;2023-06-14T14:50:53;25.70;40.50
758;DHT22;363;48.764;9.172;2023-06-14T14:53:18;25.70;40.50
758;DHT22;363;48.764;9.172;2023-06-14T14:55:44;25.80;40.50
758;DHT22;363;48.764;9.172;2023-06-14T14:58:12;25.80;39.90
758;DHT22;363;48.764;9.172;2023-06-14T15:00:38;25.80;39.90
758;DHT22;363;48.764;9.172;2023-06-14T15:03:04;25.90;40.00
758;DHT22;363;48.764;9.172;2023-06-14T15:05:29;25.80;39.90
758;DHT22;363;48.764;9.172;2023-06-14T15:07:55;25.80;39.80
758;DHT22;363;48.764;9.172;2023-06-14T15:10:21;25.70;39.60
758;DHT22;363;48.764;9.172;2023-06-14T15:12:46;25.50;39.40
758;DHT22;363;48.764;9.172;2023-06-14T15:15:12;25.50;40.00
758;DHT22;363;48.764;9.172;2023-06-14T15:17:37;25.40;39.80
758;DHT22;363;48.764;9.172;2023-06-14T15:20:03;25.60;39.70
758;DHT22;363;48.764;9.172;2023-06-14T15:22:31;25.50;39.50
758;DHT22;363;48.764;9.172;2023-06-14T15:24:56;25.50;40.10
758;DHT22;363;48.764;9.172;2023-06-14T15:27:22;26.40;41.30
758;DHT22;363;48.764;9.172;2023-06-14T15:29:48;25.80;40.80
758;DHT22;363;48.764;9.172;2023-06-14T15:32:13;25.80;40.60
758;DHT22;363;48.764;9.172;2023-06-14T15:34:39;25.90;40.30
758;DHT22;363;48.764;9.172;2023-06-14T15:37:08;26.00;40.10
758;DHT22;363;48.764;9.172;2023-06-14T15:39:34;26.00;40.10
758;DHT22;363;48.764;9.172;2023-06-14T15:42:00;26.00;39.80
758;DHT22;363;48.764;9.172;2023-06-14T15:44:26;25.90;39.50
758;DHT22;363;48.764;9.172;2023-06-14T15:46:51;26.00;39.30
758;DHT22;363;48.764;9.172;2023-06-14T15:49:17;25.80;39.60
758;DHT22;363;48.764;9.172;2023-06-14T15:51:44;25.90;39.50
758;DHT22;363;48.764;9.172;2023-06-14T15:54:10;25.80;39.80
758;DHT22;363;48.764;9.172;2023-06-14T15:56:36;25.80;40.50
758;DHT22;363;48.764;9.172;2023-06-14T15:59:01;25.70;40.50
758;DHT22;363;48.764;9.172;2023-06-14T16:01:27;25.50;40.70
758;DHT22;363;48.764;9.172;2023-06-14T16:03:53;25.30;41.00
758;DHT22;363;48.764;9.172;2023-06-14T16:06:19;25.20;40.80
758;DHT22;363;48.764;9.172;2023-06-14T16:08:45;25.00;41.00
758;DHT22;363;48.764;9.172;2023-06-14T16:11:11;24.80;41.40
758;DHT22;363;48.764;9.172;2023-06-14T16:13:37;24.60;41.60
758;DHT22;363;48.764;9.172;2023-06-14T16:16:02;24.50;41.70
758;DHT22;363;48.764;9.172;2023-06-14T16:18:28;24.50;42.20
758;DHT22;363;48.764;9.172;2023-06-14T16:20:54;24.60;41.90
758;DHT22;363;48.764;9.172;2023-06-14T16:23:21;24.70;41.90
758;DHT22;363;48.764;9.172;2023-06-14T16:25:47;24.80;41.80
758;DHT22;363;48.764;9.172;2023-06-14T16:28:13;24.80;41.80
758;DHT22;363;48.764;9.172;2023-06-14T16:30:39;24.90;40.90
758;DHT22;363;48.764;9.172;2023-06-14T16:33:04;24.90;41.20
758;DHT22;363;48.764;9.172;2023-06-14T16:35:30;24.70;41.00
758;DHT22;363;48.764;9.172;2023-06-14T16:37:57;24.70;41.10
758;DHT22;363;48.764;9.172;2023-06-14T16:40:23;24.80;41.30
758;DHT22;363;48.764;9.172;2023-06-14T16:42:49;24.90;41.60
758;DHT22;363;48.764;9.172;2023-06-14T16:45:15;24.90;41.70
758;DHT22;363;48.764;9.172;2023-06-14T16:47:41;24.90;41.60
758;DHT22;363;48.764;9.172;2023-06-14T16:50:07;25.00;41.40
758;DHT22;363;48.764;9.172;2023-06-14T16:52:33;24.90;41.80
758;DHT22;363;48.764;9.172;2023-06-14T16:54:59;24.90;42.20